Time;durP1;ratioP1;P1;durP2;ratioP2;P2;SDS_P1;SDS_P2;PMS_P1;PMS_P2;Temp;Humidity;BMP_temperature;BMP_pressure;BME280_temperature;BME280_humidity;BME280_pressure;Samples;Min_cycle;Max_cycle;Signal;HPM_P1;HPM_P2
2022/09/12 00:01:15;;;;;;;7.47;3.10;;;;;;;29.37;56.14;100752.13;5067098;28;70045;-45
2022/09/12 00:03:52;;;;;;;4.13;2.75;;;;;;;29.43;57.39;100745.03;5068858;28;66702;-44
2022/09/12 00:06:27;;;;;;;3.17;2.97;;;;;;;29.53;57.92;100763.47;5077166;27;70771;-45
2022/09/12 00:09:04;;;;;;;2.90;2.70;;;;;;;29.58;58.44;100775.31;5061065;28;66726;-44
2022/09/12 00:11:38;;;;;;;5.10;3.60;;;;;;;29.64;58.98;100776.34;5061806;28;70568;-47
2022/09/12 00:14:16;;;;;;;3.60;3.30;;;;;;;29.27;59.77;100705.78;5072534;28;67026;-44
2022/09/12 00:16:49;;;;;;;3.28;2.92;;;;;;;29.69;59.84;100771.13;5074783;28;69543;-45
2022/09/12 00:19:22;;;;;;;7.25;3.05;;;;;;;29.75;59.21;100774.84;5076102;28;66964;-44
2022/09/12 00:21:55;;;;;;;9.25;3.30;;;;;;;29.78;59.80;100775.28;5066383;28;71135;-44
2022/09/12 00:24:27;;;;;;;4.32;2.58;;;;;;;29.81;59.17;100782.94;5066832;28;67054;-43
2022/09/12 00:27:00;;;;;;;3.45;3.08;;;;;;;29.82;59.28;100787.31;5072997;28;69849;-45
2022/09/12 00:29:33;;;;;;;3.33;3.08;;;;;;;29.86;59.59;100789.56;5083890;27;66719;-45
2022/09/12 00:32:05;;;;;;;4.40;3.17;;;;;;;29.88;59.24;100795.59;5082449;27;70255;-45
2022/09/12 00:34:38;;;;;;;4.32;2.80;;;;;;;29.91;59.06;100800.56;5076299;28;67114;-45
2022/09/12 00:37:10;;;;;;;3.90;2.92;;;;;;;29.92;58.99;100796.81;5080732;28;70194;-44
2022/09/12 00:39:42;;;;;;;2.72;2.53;;;;;;;29.94;59.18;100800.97;5074924;28;66292;-45
2022/09/12 00:42:15;;;;;;;3.42;2.88;;;;;;;29.95;58.93;100802.66;5078034;28;71150;-43
2022/09/12 00:44:51;;;;;;;2.92;2.72;;;;;;;29.94;59.23;100805.56;5074525;28;66272;-43
2022/09/12 00:47:27;;;;;;;3.33;3.13;;;;;;;29.64;58.98;100751.19;5062764;28;70810;-44
2022/09/12 00:50:13;;;;;;;2.80;2.60;;;;;;;29.03;59.15;100657.84;5067033;28;66970;-43
2022/09/12 00:52:48;;;;;;;7.13;2.63;;;;;;;30.02;58.96;100814.25;5067114;28;70807;-43
2022/09/12 00:55:26;;;;;;;5.25;2.50;;;;;;;30.04;59.52;100816.75;5070050;28;66297;-45
2022/09/12 00:58:21;;;;;;;2.70;2.50;;;;;;;29.94;58.84;100821.78;5077442;28;71387;-44
2022/09/12 01:00:54;;;;;;;2.70;2.50;;;;;;;30.05;58.93;100823.81;5076355;28;67017;-44
2022/09/12 01:03:27;;;;;;;4.50;2.63;;;;;;;30.10;59.18;100832.09;5071874;27;70186;-43
2022/09/12 01:06:11;;;;;;;3.28;3.00;;;;;;;30.10;58.66;100836.69;5069881;27;66202;-44
2022/09/12 01:08:45;;;;;;;5.30;2.63;;;;;;;30.12;59.38;100835.44;5069882;28;70758;-44
2022/09/12 01:11:20;;;;;;;2.45;2.25;;;;;;;30.15;59.32;100843.13;5079072;27;66143;-50
2022/09/12 01:13:53;;;;;;;2.92;2.72;;;;;;;30.09;59.04;100835.88;5063269;28;70260;-44
2022/09/12 01:16:26;;;;;;;2.90;2.75;;;;;;;30.03;59.32;100823.19;5064723;28;66410;-42
2022/09/12 01:19:23;;;;;;;2.63;2.42;;;;;;;30.10;59.24;100853.75;5073274;28;69714;-43
2022/09/12 01:22:05;;;;;;;3.05;2.85;;;;;;;30.17;59.28;100854.56;5063004;28;67050;-44
2022/09/12 01:24:51;;;;;;;2.87;2.53;;;;;;;29.86;59.57;100797.69;5064190;28;70708;-43
2022/09/12 01:27:32;;;;;;;3.08;2.85;;;;;;;30.27;59.54;100856.81;5065033;28;67370;-44
2022/09/12 01:30:40;;;;;;;2.75;2.55;;;;;;;30.14;59.19;100856.84;5063073;28;71437;-45
2022/09/12 01:33:28;;;;;;;3.40;2.83;;;;;;;30.31;59.61;100865.31;5062196;28;66919;-44
2022/09/12 01:36:18;;;;;;;4.15;3.20;;;;;;;29.83;59.23;100778.13;5064688;28;71257;-43
2022/09/12 01:39:01;;;;;;;3.05;2.80;;;;;;;30.35;59.04;100861.16;5065274;28;66319;-43
2022/09/12 01:42:03;;;;;;;3.95;2.70;;;;;;;30.26;59.06;100858.69;5069829;28;70944;-43
2022/09/12 01:44:56;;;;;;;3.22;2.50;;;;;;;30.40;59.34;100855.91;5061820;28;66771;-45
2022/09/12 01:47:38;;;;;;;;;;;;;;;30.04;60.38;100860.03;5064113;28;70892;-43
2022/09/12 01:50:21;;;;;;;2.50;2.30;;;;;;;30.21;59.54;100834.13;5068311;28;66976;-44
2022/09/12 01:53:05;;;;;;;4.85;3.47;;;;;;;30.49;59.34;100863.53;5072294;28;70289;-42
2022/09/12 01:55:45;;;;;;;14.05;4.07;;;;;;;30.03;58.96;100788.03;5065008;28;66834;-45
2022/09/12 01:58:42;;;;;;;33.00;7.40;;;;;;;30.31;59.52;100830.97;5072550;28;70405;-51
2022/09/12 02:01:26;;;;;;;35.55;7.63;;;;;;;30.45;59.33;100853.34;5044819;27;66093;-45
2022/09/12 02:04:16;;;;;;;20.98;6.80;;;;;;;30.55;58.90;100872.66;5074389;28;70827;-44
2022/09/12 02:07:16;;;;;;;20.67;5.28;;;;;;;29.81;59.52;100738.84;5074296;28;66833;-43
2022/09/12 02:10:01;;;;;;;11.50;4.88;;;;;;;30.59;58.90;100865.78;5076072;28;70986;-44
2022/09/12 02:12:47;;;;;;;13.05;4.88;;;;;;;30.60;58.92;100867.44;5077694;28;66445;-44
2022/09/12 02:15:26;;;;;;;10.82;4.45;;;;;;;30.24;59.44;100795.84;5069236;28;69921;-42
2022/09/12 02:18:03;;;;;;;13.05;4.40;;;;;;;30.79;59.21;100875.63;5074253;27;66757;-43
2022/09/12 02:20:38;;;;;;;8.23;4.20;;;;;;;30.35;59.61;100804.31;5079430;28;70855;-43
2022/09/12 02:23:26;;;;;;;;;;;;;;;30.47;60.34;100886.47;5078849;28;66143;-45
2022/09/12 02:26:06;;;;;;;10.02;4.20;;;;;;;30.84;59.15;100883.94;5075353;28;70547;-44
2022/09/12 02:28:42;;;;;;;6.72;3.80;;;;;;;30.83;58.67;100866.03;5057745;28;66276;-45
2022/09/12 02:31:33;;;;;;;12.52;4.10;;;;;;;30.91;58.80;100882.03;5077669;28;70439;-43
2022/09/12 02:34:10;;;;;;;11.35;4.07;;;;;;;30.92;58.67;100878.25;5076765;28;67101;-43
2022/09/12 02:37:07;;;;;;;5.00;4.03;;;;;;;30.93;59.06;100885.34;5075025;27;70719;-43
2022/09/12 02:39:40;;;;;;;8.90;4.40;;;;;;;30.95;58.96;100869.69;5080029;28;66328;-44
2022/09/12 02:42:15;;;;;;;16.02;4.10;;;;;;;31.05;58.63;100872.72;5071664;28;70751;-44
2022/09/12 02:44:48;;;;;;;4.40;3.55;;;;;;;31.11;58.69;100881.84;5079670;27;66855;-43
2022/09/12 02:47:38;;;;;;;5.68;3.50;;;;;;;31.05;58.24;100859.19;5075651;28;70689;-44
2022/09/12 02:50:12;;;;;;;6.43;3.58;;;;;;;31.14;58.82;100874.09;5075713;28;67755;-43
2022/09/12 02:52:45;;;;;;;3.72;3.00;;;;;;;31.21;58.38;100876.78;5077844;27;70670;-44
2022/09/12 02:55:18;;;;;;;8.73;3.78;;;;;;;31.24;58.77;100875.50;5075865;28;66549;-45
2022/09/12 02:57:50;;;;;;;10.15;3.85;;;;;;;31.26;58.47;100876.06;5079795;27;70618;-44
2022/09/12 03:00:24;;;;;;;9.88;4.05;;;;;;;31.21;58.20;100867.81;5075615;27;66670;-43
2022/09/12 03:03:21;;;;;;;5.40;3.67;;;;;;;31.22;58.31;100883.00;5076050;28;70720;-44
2022/09/12 03:06:00;;;;;;;7.88;3.88;;;;;;;31.31;58.67;100865.41;5077932;27;66481;-45
2022/09/12 03:08:44;;;;;;;5.30;3.00;;;;;;;31.38;58.34;100877.88;5074436;28;70394;-44
2022/09/12 03:11:22;;;;;;;8.18;3.65;;;;;;;31.39;58.38;100873.28;5077914;28;66677;-44
2022/09/12 03:13:57;;;;;;;6.43;3.67;;;;;;;31.44;58.39;100881.56;5053942;28;70133;-45
2022/09/12 03:16:46;;;;;;;8.43;3.60;;;;;;;31.01;58.36;100806.50;5064237;28;66988;-45
2022/09/12 03:19:24;;;;;;;6.13;3.30;;;;;;;31.49;58.14;100868.19;5065122;28;70215;-44
2022/09/12 03:22:20;;;;;;;8.38;3.05;;;;;;;31.50;57.97;100858.16;5075476;28;66945;-44
2022/09/12 03:25:27;;;;;;;9.60;3.67;;;;;;;31.53;58.21;100858.53;5067931;28;70893;-45
2022/09/12 03:28:00;;;;;;;10.60;4.13;;;;;;;31.55;57.75;100866.44;5031683;28;66925;-44
2022/09/12 03:30:50;;;;;;;4.93;3.53;;;;;;;31.09;57.89;100786.41;5073525;28;70822;-43
2022/09/12 03:33:24;;;;;;;8.35;3.70;;;;;;;31.14;57.99;100781.16;5079053;28;67062;-43
2022/09/12 03:35:57;;;;;;;8.05;4.00;;;;;;;31.65;58.21;100865.91;5075884;27;70673;-44
2022/09/12 03:38:29;;;;;;;19.17;4.63;;;;;;;31.67;58.04;100858.38;5066996;28;66728;-45
2022/09/12 03:41:02;;;;;;;17.35;5.13;;;;;;;31.68;57.84;100858.16;5071782;28;70721;-43
2022/09/12 03:43:34;;;;;;;18.38;4.50;;;;;;;31.71;57.98;100859.59;5063327;28;66691;-43
2022/09/12 03:46:07;;;;;;;11.88;4.70;;;;;;;31.73;58.14;100852.03;5077013;28;70093;-44
2022/09/12 03:48:40;;;;;;;12.63;4.68;;;;;;;31.75;58.00;100852.66;5076564;27;66842;-44
2022/09/12 03:51:13;;;;;;;13.88;4.93;;;;;;;31.73;57.84;100846.63;5077668;28;70704;-43
2022/09/12 03:53:46;;;;;;;10.65;4.85;;;;;;;31.79;58.14;100857.41;5072253;28;66759;-44
2022/09/12 03:56:18;;;;;;;13.90;4.70;;;;;;;31.82;57.81;100845.28;5071639;28;70601;-44
2022/09/12 03:58:51;;;;;;;9.73;4.63;;;;;;;31.85;57.84;100854.84;5075517;27;66328;-44
2022/09/12 04:01:24;;;;;;;12.40;4.40;;;;;;;31.87;57.90;100847.28;5077885;27;70799;-42
2022/09/12 04:03:56;;;;;;;12.45;4.53;;;;;;;31.56;57.98;100806.56;5078812;28;66521;-44
2022/09/12 04:06:30;;;;;;;15.82;4.35;;;;;;;31.90;58.18;100847.69;5081584;28;70251;-43
2022/09/12 04:09:04;;;;;;;11.23;4.43;;;;;;;31.78;57.66;100820.47;5063679;28;66877;-43
2022/09/12 04:11:37;;;;;;;10.93;4.35;;;;;;;31.94;58.04;100838.06;5065342;28;70835;-43
2022/09/12 04:14:09;;;;;;;17.05;4.60;;;;;;;31.96;58.19;100846.78;5063644;28;67067;-43
2022/09/12 04:16:42;;;;;;;15.32;4.40;;;;;;;31.65;57.97;100781.84;5069322;28;69969;-43
2022/09/12 04:19:17;;;;;;;14.55;4.63;;;;;;;31.87;58.02;100820.97;5070035;28;67478;-43
2022/09/12 04:21:50;;;;;;;15.32;4.97;;;;;;;32.01;58.17;100837.94;5065528;28;71334;-43
2022/09/12 04:24:22;;;;;;;8.50;4.25;;;;;;;31.92;57.99;100823.88;5068433;28;66185;-45
2022/09/12 04:26:55;;;;;;;11.95;4.32;;;;;;;32.05;58.41;100834.56;5074553;28;71330;-42
2022/09/12 04:29:28;;;;;;;12.50;4.25;;;;;;;31.97;58.19;100810.47;5069779;28;67182;-45
2022/09/12 04:32:06;;;;;;;11.73;4.07;;;;;;;31.72;58.28;100755.47;5072377;28;71013;-44
2022/09/12 04:34:39;;;;;;;8.85;4.65;;;;;;;32.10;58.22;100803.22;5080847;28;66571;-43
2022/09/12 04:37:11;;;;;;;9.48;4.38;;;;;;;32.11;58.00;100804.84;5071241;27;71287;-43
2022/09/12 04:39:44;;;;;;;9.68;4.40;;;;;;;32.14;57.97;100804.38;5064768;28;66118;-43
2022/09/12 04:42:16;;;;;;;9.85;4.75;;;;;;;32.07;58.29;100787.38;5070340;28;70887;-44
2022/09/12 04:44:49;;;;;;;9.32;3.88;;;;;;;31.78;58.22;100725.53;5070803;27;66863;-44
2022/09/12 04:47:21;;;;;;;16.88;4.70;;;;;;;32.16;57.77;100786.81;5069054;28;70248;-43
2022/09/12 04:49:54;;;;;;;12.27;4.03;;;;;;;32.19;58.24;100780.94;5077803;28;67160;-45
2022/09/12 04:52:26;;;;;;;6.28;3.42;;;;;;;32.17;58.14;100777.59;5068208;28;70840;-43
2022/09/12 04:54:59;;;;;;;10.18;3.92;;;;;;;32.22;58.01;100763.34;5079366;28;67298;-45
2022/09/12 04:57:31;;;;;;;7.55;3.67;;;;;;;32.08;57.94;100741.00;5070662;28;69500;-44
2022/09/12 05:00:05;;;;;;;4.82;3.90;;;;;;;32.26;58.06;100759.09;5080458;27;66559;-45
2022/09/12 05:02:37;;;;;;;11.70;4.10;;;;;;;31.90;57.95;100690.34;5079401;28;71439;-43
2022/09/12 05:05:10;;;;;;;6.35;3.15;;;;;;;32.28;58.36;100743.41;5074788;28;66952;-44
2022/09/12 05:07:42;;;;;;;11.32;3.55;;;;;;;32.29;58.38;100736.94;5069080;28;70728;-45
2022/09/12 05:10:15;;;;;;;18.52;4.22;;;;;;;31.75;58.17;100641.13;5063606;28;66806;-44
2022/09/12 05:12:47;;;;;;;9.48;4.22;;;;;;;32.34;57.89;100723.47;5064763;28;70210;-43
2022/09/12 05:15:20;;;;;;;8.48;3.10;;;;;;;32.34;57.94;100720.75;5085049;27;67173;-44
2022/09/12 05:17:52;;;;;;;9.02;3.53;;;;;;;32.37;57.98;100711.31;5081875;27;71076;-44
2022/09/12 05:20:25;;;;;;;5.55;3.67;;;;;;;32.35;57.77;100708.03;5079355;27;66269;-43
2022/09/12 05:22:58;;;;;;;8.07;3.38;;;;;;;32.30;57.83;100687.03;5075609;27;70853;-45
2022/09/12 05:25:31;;;;;;;5.22;2.90;;;;;;;32.42;57.71;100698.69;5070084;28;66664;-43
2022/09/12 05:28:03;;;;;;;5.97;2.92;;;;;;;32.43;57.59;100680.50;5074066;27;70923;-44
2022/09/12 05:30:35;;;;;;;6.68;2.58;;;;;;;32.36;57.64;100661.63;5081939;27;66963;-44
2022/09/12 05:33:08;;;;;;;9.40;3.17;;;;;;;32.47;57.65;100673.59;5070580;28;71057;-43
2022/09/12 05:35:41;;;;;;;3.72;2.80;;;;;;;32.51;57.74;100668.50;5072620;28;65818;-45
2022/09/12 05:38:13;;;;;;;3.92;2.95;;;;;;;32.53;57.66;100655.53;5068101;28;70281;-43
2022/09/12 05:40:46;;;;;;;6.50;3.08;;;;;;;32.54;57.76;100647.16;5069305;28;66372;-43
2022/09/12 05:43:19;;;;;;;6.15;2.65;;;;;;;32.51;57.71;100635.94;5070430;28;70126;-43
2022/09/12 05:45:51;;;;;;;10.45;2.78;;;;;;;32.58;57.71;100642.06;5068505;27;66944;-44
2022/09/12 05:48:24;;;;;;;4.63;2.30;;;;;;;32.51;57.98;100633.22;5071499;28;70933;-45
2022/09/12 05:51:02;;;;;;;4.78;2.22;;;;;;;32.42;57.72;100603.69;5075160;28;66654;-44
2022/09/12 05:53:36;;;;;;;7.60;2.30;;;;;;;32.67;57.78;100629.78;5077197;28;70568;-44
2022/09/12 05:56:12;;;;;;;3.10;2.45;;;;;;;32.71;57.48;100633.69;5063537;28;66632;-45
2022/09/12 05:58:47;;;;;;;6.53;1.90;;;;;;;32.72;57.58;100621.75;5073752;28;70689;-45
2022/09/12 06:01:20;;;;;;;2.60;2.05;;;;;;;32.72;57.61;100614.41;5076134;28;67130;-45
2022/09/12 06:03:54;;;;;;;3.72;1.88;;;;;;;32.80;57.33;100613.22;5077411;28;69310;-45
2022/09/12 06:06:29;;;;;;;2.40;1.90;;;;;;;32.77;57.32;100599.31;5078444;27;66975;-46
2022/09/12 06:09:03;;;;;;;3.47;2.45;;;;;;;32.82;57.29;100594.81;5081338;27;69954;-45
2022/09/12 06:11:39;;;;;;;4.47;1.90;;;;;;;32.78;57.43;100582.75;5075339;27;66277;-45
2022/09/12 06:14:14;;;;;;;2.97;1.98;;;;;;;32.93;57.46;100602.09;5081104;27;70241;-44
2022/09/12 06:16:47;;;;;;;5.43;2.30;;;;;;;32.94;57.63;100603.72;5064287;28;67413;-44
2022/09/12 06:19:22;;;;;;;3.95;2.03;;;;;;;32.99;57.43;100600.31;5063384;28;70849;-45
2022/09/12 06:21:55;;;;;;;3.13;1.75;;;;;;;33.02;57.21;100596.31;5062400;28;67464;-45
2022/09/12 06:24:28;;;;;;;2.47;1.80;;;;;;;33.04;57.36;100596.88;5071402;28;70097;-44
2022/09/12 06:27:01;;;;;;;3.33;2.30;;;;;;;33.07;57.39;100597.25;5071267;28;66102;-43
2022/09/12 06:29:34;;;;;;;1.63;1.45;;;;;;;33.07;57.19;100589.09;5062769;28;70871;-45
2022/09/12 06:32:06;;;;;;;4.38;1.60;;;;;;;33.00;57.58;100571.25;5060934;28;66400;-45
2022/09/12 06:34:39;;;;;;;3.08;1.48;;;;;;;33.12;57.36;100582.91;5075779;28;70649;-44
2022/09/12 06:37:11;;;;;;;2.40;1.33;;;;;;;32.63;57.39;100506.41;5068676;27;66305;-44
2022/09/12 06:39:45;;;;;;;3.88;1.60;;;;;;;33.17;57.44;100591.16;5071667;27;70163;-44
2022/09/12 06:42:18;;;;;;;2.28;1.55;;;;;;;33.18;57.31;100598.22;5065280;28;66340;-44
2022/09/12 06:45:18;;;;;;;4.18;1.60;;;;;;;33.12;57.89;100589.16;5077678;28;71031;-44
2022/09/12 06:48:10;;;;;;;3.38;1.95;;;;;;;33.21;57.63;100583.34;5075304;28;66513;-44
2022/09/12 06:50:42;;;;;;;7.53;2.03;;;;;;;33.24;57.50;100583.69;5077619;28;70935;-44
2022/09/12 06:53:14;;;;;;;3.08;1.73;;;;;;;33.13;57.53;100562.81;5078281;28;65645;-44
2022/09/12 06:55:53;;;;;;;3.80;1.60;;;;;;;33.28;57.47;100581.31;5073276;28;71065;-44
2022/09/12 06:58:27;;;;;;;5.35;1.92;;;;;;;33.29;57.36;100580.22;5074772;28;66160;-43
2022/09/12 07:01:10;;;;;;;4.00;1.45;;;;;;;33.28;57.61;100573.16;5078386;28;70336;-43
2022/09/12 07:03:47;;;;;;;4.15;1.27;;;;;;;33.31;57.40;100565.31;5079411;28;66345;-43
2022/09/12 07:06:23;;;;;;;7.05;1.95;;;;;;;32.52;57.37;100420.41;5075513;28;70619;-43
2022/09/12 07:08:58;;;;;;;6.07;2.00;;;;;;;33.24;57.46;100542.91;5073623;28;67034;-44
2022/09/12 07:11:33;;;;;;;4.07;1.83;;;;;;;33.33;57.52;100541.44;5064009;28;70284;-43
2022/09/12 07:14:08;;;;;;;3.05;1.67;;;;;;;33.25;57.48;100533.69;5062163;28;66273;-43
2022/09/12 07:16:41;;;;;;;2.10;1.80;;;;;;;33.25;57.38;100538.31;5062319;28;71218;-44
2022/09/12 07:19:14;;;;;;;4.30;1.38;;;;;;;33.20;57.33;100539.03;5062401;28;66598;-44
2022/09/12 07:21:46;;;;;;;4.40;1.60;;;;;;;33.35;57.45;100571.13;5073251;27;70135;-44
2022/09/12 07:24:19;;;;;;;3.25;1.40;;;;;;;33.32;57.36;100577.88;5071453;28;67109;-44
2022/09/12 07:26:51;;;;;;;5.47;1.33;;;;;;;33.35;57.43;100588.25;5067105;28;71022;-43
2022/09/12 07:29:23;;;;;;;4.20;1.77;;;;;;;33.07;57.48;100525.72;5071016;27;66895;-43
2022/09/12 07:32:07;;;;;;;3.63;1.70;;;;;;;33.35;57.51;100571.94;5073989;28;70324;-44
2022/09/12 07:34:40;;;;;;;4.47;2.10;;;;;;;33.00;57.53;100512.31;5078082;27;66799;-43
2022/09/12 07:37:12;;;;;;;3.85;1.77;;;;;;;33.28;57.53;100557.66;5076687;28;70440;-43
2022/09/12 07:39:44;;;;;;;7.47;1.90;;;;;;;33.35;57.49;100588.25;5073271;27;66125;-45
2022/09/12 07:42:17;;;;;;;4.82;1.95;;;;;;;33.35;57.54;100582.00;5077334;28;69951;-43
2022/09/12 07:44:51;;;;;;;2.08;1.58;;;;;;;33.36;57.41;100579.00;5076615;28;66979;-44
2022/09/12 07:47:23;;;;;;;7.65;1.75;;;;;;;33.34;57.50;100564.81;5073761;28;70029;-45
2022/09/12 07:49:56;;;;;;;5.97;1.88;;;;;;;33.26;57.48;100546.19;5075766;28;66170;-44
2022/09/12 07:55:40;;;;;;;4.50;1.95;;;;;;;33.19;57.56;100539.28;5075633;28;66447;-44
2022/09/12 07:58:12;;;;;;;4.05;1.95;;;;;;;33.01;57.38;100491.38;5074003;28;70569;-44
2022/09/12 08:00:45;;;;;;;4.03;2.08;;;;;;;33.31;57.68;100551.72;5076809;27;65722;-44
2022/09/12 08:03:18;;;;;;;2.22;1.60;;;;;;;33.24;57.40;100542.91;5074975;28;70604;-44
2022/09/12 08:05:50;;;;;;;2.47;1.77;;;;;;;33.24;57.59;100536.63;5078570;28;66698;-45
2022/09/12 08:08:23;;;;;;;2.85;1.63;;;;;;;32.96;57.59;100491.25;5069604;27;70648;-44
2022/09/12 08:11:00;;;;;;;7.53;1.88;;;;;;;33.27;58.13;100547.88;5069022;28;67431;-44
2022/09/12 08:13:35;;;;;;;3.35;1.55;;;;;;;33.26;57.61;100546.19;5072316;27;70777;-43
2022/09/12 08:16:16;;;;;;;2.60;1.75;;;;;;;32.81;57.67;100462.75;5079142;28;66967;-43
2022/09/12 08:18:49;;;;;;;2.25;1.65;;;;;;;33.22;57.66;100533.34;5075467;28;70604;-43
2022/09/12 08:21:26;;;;;;;5.60;1.85;;;;;;;33.19;57.52;100550.97;5075617;27;67438;-44
2022/09/12 08:24:02;;;;;;;2.22;1.98;;;;;;;33.19;57.50;100566.47;5074830;28;71326;-43
2022/09/12 08:26:35;;;;;;;7.22;1.88;;;;;;;33.13;57.74;100546.53;5076743;28;65975;-45
2022/09/12 08:29:08;;;;;;;2.10;1.73;;;;;;;33.18;57.88;100543.88;5078332;27;70123;-45
2022/09/12 08:31:41;;;;;;;3.17;1.65;;;;;;;33.15;57.76;100528.06;5073344;28;66876;-44
2022/09/12 08:34:15;;;;;;;4.43;1.67;;;;;;;33.08;57.72;100517.34;5074757;27;71315;-43
2022/09/12 08:36:48;;;;;;;2.47;1.50;;;;;;;33.12;57.87;100517.69;5077849;28;67027;-43
2022/09/12 08:39:21;;;;;;;1.92;1.70;;;;;;;33.12;57.83;100523.13;5075595;28;70898;-42
2022/09/12 08:42:24;;;;;;;4.45;1.90;;;;;;;32.98;58.36;100528.00;5081356;28;67234;-44
2022/09/12 08:45:16;;;;;;;3.28;1.98;;;;;;;33.07;58.04;100531.16;5074400;27;71299;-43
2022/09/12 08:47:50;;;;;;;2.03;1.48;;;;;;;33.07;57.96;100532.00;5077525;28;66833;-43
2022/09/12 08:50:22;;;;;;;2.33;1.83;;;;;;;33.04;58.11;100529.78;5077696;28;70742;-44
2022/09/12 08:53:03;;;;;;;2.35;1.75;;;;;;;33.04;58.18;100547.97;5078402;28;67339;-44
2022/09/12 08:55:37;;;;;;;3.22;2.03;;;;;;;33.05;58.22;100560.50;5074810;28;71487;-44
2022/09/12 08:58:24;;;;;;;4.22;2.33;;;;;;;33.00;58.49;100571.25;5081798;28;66257;-45
2022/09/12 09:01:37;;;;;;;3.58;2.17;;;;;;;32.88;58.73;100582.16;5080941;28;70833;-43
2022/09/12 09:04:16;;;;;;;3.90;2.92;;;;;;;32.99;58.39;100583.16;5054677;28;66580;-44
2022/09/12 09:07:17;;;;;;;2.75;2.30;;;;;;;32.90;58.90;100591.72;5076119;28;70725;-44
2022/09/12 09:10:19;;;;;;;2.95;2.70;;;;;;;32.82;59.56;100583.94;5078757;28;66992;-44
2022/09/12 09:13:00;;;;;;;7.03;2.97;;;;;;;32.91;59.22;100596.06;5043300;28;69891;-44
2022/09/12 09:15:48;;;;;;;5.47;2.57;;;;;;;32.85;59.42;100610.63;5072148;28;66652;-44
2022/09/12 09:18:31;;;;;;;2.78;2.50;;;;;;;32.42;59.19;100549.38;5069046;28;70861;-45
2022/09/12 09:21:26;;;;;;;4.45;2.28;;;;;;;32.78;59.48;100631.66;5075319;28;66972;-45
2022/09/12 09:24:12;;;;;;;3.05;2.22;;;;;;;32.83;59.43;100634.47;5063991;28;70210;-45
2022/09/12 09:27:00;;;;;;;2.60;2.40;;;;;;;32.82;59.23;100632.84;5078345;27;66073;-44
2022/09/12 09:29:52;;;;;;;2.80;2.47;;;;;;;32.38;59.29;100547.41;5075981;28;70636;-44
2022/09/12 09:32:32;;;;;;;2.20;1.92;;;;;;;32.81;59.20;100625.72;5077795;27;66340;-44
2022/09/12 09:35:24;;;;;;;2.10;1.90;;;;;;;32.33;59.42;100556.25;5076222;28;70710;-44
2022/09/12 09:38:35;;;;;;;2.53;2.17;;;;;;;32.67;59.57;100635.22;5076232;27;65917;-43
2022/09/12 09:41:31;;;;;;;2.17;1.98;;;;;;;32.21;59.76;100566.31;5077218;28;70931;-45
2022/09/12 09:44:04;;;;;;;3.78;2.08;;;;;;;32.74;59.38;100657.66;5080098;28;66246;-44
2022/09/12 09:46:37;;;;;;;3.15;2.17;;;;;;;32.62;59.32;100638.63;5082341;27;71195;-44
2022/09/12 09:49:15;;;;;;;3.70;2.08;;;;;;;32.71;59.56;100652.69;5078198;28;66814;-43
2022/09/12 09:51:48;;;;;;;6.00;2.35;;;;;;;32.70;59.58;100656.47;5082346;28;70309;-44
2022/09/12 09:54:53;;;;;;;2.85;2.05;;;;;;;32.55;60.26;100662.38;5047393;28;66612;-44
2022/09/12 09:57:34;;;;;;;3.45;1.77;;;;;;;32.61;60.04;100666.03;5076232;28;70245;-45
2022/09/12 10:00:27;;;;;;;2.23;2.03;;;;;;;32.42;60.46;100655.25;5078638;27;66402;-45
2022/09/12 10:03:05;;;;;;;2.88;2.17;;;;;;;32.61;59.98;100680.44;5078162;28;70498;-48
2022/09/12 10:05:53;;;;;;;2.58;2.08;;;;;;;32.57;60.04;100683.84;5081801;28;67585;-44
2022/09/12 10:08:28;;;;;;;4.13;2.28;;;;;;;32.58;60.01;100693.69;5076294;28;70822;-44
2022/09/12 10:11:21;;;;;;;2.60;2.40;;;;;;;32.44;60.92;100674.88;5063156;28;66278;-44
2022/09/12 10:13:57;;;;;;;1.70;1.50;;;;;;;32.08;60.08;100601.81;5070215;28;70760;-43
2022/09/12 10:16:47;;;;;;;2.35;1.92;;;;;;;32.10;60.50;100597.00;5077030;27;67035;-44
2022/09/12 10:19:42;;;;;;;2.00;1.73;;;;;;;32.02;60.57;100600.88;5077547;28;69940;-44
2022/09/12 10:22:29;;;;;;;2.08;1.88;;;;;;;32.44;60.56;100683.00;5072189;28;67025;-44
2022/09/12 10:25:10;;;;;;;5.07;1.77;;;;;;;32.36;60.40;100671.69;5075558;27;70083;-43
2022/09/12 10:27:42;;;;;;;1.92;1.73;;;;;;;32.39;60.21;100693.75;5071348;28;66919;-44
2022/09/12 10:30:20;;;;;;;4.32;1.80;;;;;;;32.40;60.46;100698.13;5073546;27;70576;-44
2022/09/12 10:32:56;;;;;;;1.70;1.60;;;;;;;32.39;60.51;100699.16;5065037;28;66192;-44
2022/09/12 10:35:32;;;;;;;3.17;1.77;;;;;;;32.23;60.34;100670.84;5073503;28;70369;-44
2022/09/12 10:38:06;;;;;;;3.33;1.90;;;;;;;31.84;60.36;100620.72;5072991;28;66422;-43
2022/09/12 10:40:42;;;;;;;3.03;1.60;;;;;;;32.36;60.58;100713.22;5069486;28;70226;-44
2022/09/12 10:43:30;;;;;;;1.63;1.52;;;;;;;32.27;60.96;100707.31;5075487;28;66664;-44
2022/09/12 10:46:17;;;;;;;1.98;1.73;;;;;;;32.24;61.09;100721.34;5079382;27;70005;-45
2022/09/12 10:48:51;;;;;;;1.95;1.63;;;;;;;31.74;60.67;100631.34;5065607;28;66986;-44
2022/09/12 10:51:24;;;;;;;2.78;1.92;;;;;;;32.29;60.79;100720.66;5068983;28;70233;-45
2022/09/12 10:54:02;;;;;;;2.28;1.55;;;;;;;32.09;60.77;100699.25;5070815;28;66912;-44
2022/09/12 10:57:01;;;;;;;4.53;1.88;;;;;;;32.17;61.30;100719.78;5081075;28;70669;-45
2022/09/12 10:59:58;;;;;;;1.60;1.48;;;;;;;32.11;61.41;100718.03;5067591;28;67514;-46
2022/09/12 11:02:58;;;;;;;2.03;1.70;;;;;;;32.11;61.29;100718.03;5078006;28;70450;-44
2022/09/12 11:05:57;;;;;;;2.17;2.00;;;;;;;32.09;61.10;100715.53;5075545;28;66511;-44
2022/09/12 11:08:31;;;;;;;2.50;2.08;;;;;;;32.17;60.92;100700.81;5067379;28;70919;-44
2022/09/12 11:11:15;;;;;;;1.52;1.42;;;;;;;32.16;61.01;100694.56;5067081;28;66964;-45
2022/09/12 11:14:27;;;;;;;2.47;1.73;;;;;;;32.01;61.30;100708.56;5072381;28;70293;-45
2022/09/12 11:17:15;;;;;;;1.77;1.55;;;;;;;32.09;61.31;100699.25;5037205;28;66150;-43
2022/09/12 11:19:58;;;;;;;2.03;1.70;;;;;;;32.03;61.54;100708.31;5072542;28;71075;-44
2022/09/12 11:22:58;;;;;;;2.17;1.83;;;;;;;32.06;61.15;100710.56;5071880;28;66628;-45
2022/09/12 11:25:58;;;;;;;1.88;1.77;;;;;;;32.04;61.22;100712.72;5076041;28;69236;-45
2022/09/12 11:28:42;;;;;;;2.42;2.22;;;;;;;32.07;61.59;100727.66;5064760;28;67282;-47
2022/09/12 11:32:02;;;;;;;2.22;2.03;;;;;;;31.94;62.11;100723.28;5044960;28;70534;-46
2022/09/12 11:35:05;;;;;;;1.80;1.70;;;;;;;31.96;62.05;100729.31;5070370;28;66046;-45
2022/09/12 11:37:54;;;;;;;;;;;;;;;31.66;62.85;100742.84;5074444;27;70184;-44
2022/09/12 11:40:55;;;;;;;2.50;2.28;;;;;;;31.81;62.56;100745.97;5060827;28;67011;-43
2022/09/12 11:43:54;;;;;;;2.75;2.08;;;;;;;31.86;61.92;100748.81;5066718;28;70038;-43
2022/09/12 11:46:38;;;;;;;2.72;2.53;;;;;;;31.92;62.27;100747.09;5074646;27;66522;-45
2022/09/12 11:49:12;;;;;;;3.00;2.80;;;;;;;31.96;61.64;100748.31;5072117;27;70671;-45
2022/09/12 11:51:53;;;;;;;2.97;2.78;;;;;;;31.90;62.19;100750.03;5076534;27;65624;-46
2022/09/12 11:54:49;;;;;;;3.30;2.67;;;;;;;31.82;62.33;100763.91;5073798;28;70862;-45
2022/09/12 11:57:29;;;;;;;4.20;3.80;;;;;;;31.92;61.95;100758.78;5064713;28;67250;-45
2022/09/12 12:00:14;;;;;;;3.85;3.53;;;;;;;31.89;61.74;100753.78;5072640;28;70830;-46
2022/09/12 12:03:09;;;;;;;4.03;3.65;;;;;;;31.95;62.43;100768.34;5068266;28;67183;-47
2022/09/12 12:06:27;;;;;;;6.78;5.05;;;;;;;31.82;62.73;100764.72;5064435;28;70144;-46
2022/09/12 12:09:00;;;;;;;6.78;5.32;;;;;;;31.88;62.75;100760.28;5084982;27;66622;-46
2022/09/12 12:11:41;;;;;;;7.90;5.80;;;;;;;31.61;62.53;100722.66;5068414;27;70580;-44
2022/09/12 12:14:44;;;;;;;7.47;6.60;;;;;;;31.88;63.19;100767.59;5076827;28;66142;-44
2022/09/12 12:17:24;;;;;;;9.75;6.47;;;;;;;31.93;63.76;100771.28;5054732;28;70788;-48
2022/09/12 12:20:02;;;;;;;22.55;8.82;;;;;;;31.40;63.46;100679.78;5059813;28;67651;-45
2022/09/12 12:22:51;;;;;;;7.90;6.03;;;;;;;31.07;64.39;100632.22;5080743;27;70904;-44
2022/09/12 12:25:50;;;;;;;6.90;6.40;;;;;;;31.77;64.55;100761.06;5080403;28;66365;-43